San Diego, California
Traffic Map
Current Weather Conditions
San Diego, California
Broken Clouds
Broken Clouds
21°
Feels Like: 21°
Wind Chill: 21° Ceiling: 20000
Heat Index: 21° Visibility: 10mi
Dew Point: 18° Wind: 3mph
Humidity: 81% Direction: 220° (SW)
Pressure: 29.86in Gusts: 0mph
Raw Report DataKSAN 310251Z 22003KT 10SM FEW016 SCT050 BKN200 21/18 A2986 RMK AO2 SLP111 T02110178 53005
Traffic Incident Summary
Active as of:
Severity:
Category:
InformationThere was an issue retrieving the traffic information for this location. Please try a different location or try again shortly.
Advertisements
Track Severe Weather on mobile